• Join FlightAware (Why Join?)
  • Login
  • US Flag 
01:38AM EDT


 

Airport Tracker/Info


-or-


 

Live Flight TrackerFlight Track Log ✈ N37227 ✈ 30-Jul-2014 ✈ KBCT - KORL

Flight Track Log - Related Links

Times and Time Zones

All times are in EDT time to prevent confusion due to time zone crossing. See the N37227 flight status page for this flight to view local times or setup timezone preferences in your user account.

Time Position Orientation Groundspeed Altitude Reporting Facility
EDT Latitude Longitude Course Direction KTS MPH feet Rate Location/Type
07:06AM 26.3625 -80.1256 307° West 145 167 500  Level Miami Center
07:07AM 26.3806 -80.1522 307° West 126 145 1,500 960 Climbing Miami Center
07:08AM 26.4119 -80.1700 333° Northwest 127 146 2,500 840 Climbing Miami Center
07:09AM 26.4461 -80.1900 332° Northwest 138 159 3,300 840 Climbing Miami Center
07:10AM 26.4853 -80.2114 334° Northwest 145 167 4,300 900 Climbing Miami Center
07:11AM 26.5231 -80.2317 334° Northwest 149 171 5,200 780 Climbing Miami Center
07:12AM 26.5633 -80.2506 337° Northwest 155 178 6,000 540 Climbing Miami Center
07:13AM 26.6061 -80.2683 340° North 164 189 6,400 180 Climbing Miami Center
07:14AM 26.6550 -80.2881 340° North 186 214 6,400  Level Miami Center
07:15AM 26.7044 -80.3089 339° North 188 216 6,400  Level Miami Center
07:16AM 26.7578 -80.3275 343° North 181 208 6,400  Level Miami Center
07:17AM 26.8078 -80.3458 342° North 188 216 6,400 -60 Level Miami Center
07:18AM 26.8547 -80.3675 338° Northwest 188 216 6,300  Descending Miami Center
07:19AM 26.9039 -80.3844 343° North 189 217 6,400  Climbing Miami Center
07:20AM 26.9600 -80.4086 339° North 189 217 6,400  Level Miami Center
07:21AM 27.0064 -80.4261 341° North 187 215 6,400  Level Miami Center
07:22AM 27.0583 -80.4467 341° North 186 214 6,400  Level Miami Center
07:23AM 27.1094 -80.4694 338° Northwest 187 215 6,400  Level Miami Center
07:24AM 27.1569 -80.4900 339° North 189 217 6,400  Level Miami Center
07:25AM 27.2075 -80.5114 339° North 189 217 6,400  Level Miami Center
07:26AM 27.2542 -80.5317 339° North 189 217 6,400  Level Miami Center
07:27AM 27.3056 -80.5556 338° Northwest 189 217 6,400  Level Miami Center
07:28AM 27.3525 -80.5772 338° Northwest 189 217 6,400  Level Miami Center
07:29AM 27.4022 -80.6006 337° Northwest 188 216 6,400  Level Miami Center
07:30AM 27.4531 -80.6236 338° Northwest 188 216 6,400  Level Miami Center
07:31AM 27.5022 -80.6486 336° Northwest 187 215 6,400  Level Miami Center
07:32AM 27.5472 -80.6717 336° Northwest 186 214 6,400  Level Miami Center
07:33AM 27.5978 -80.6950 338° Northwest 186 214 6,400  Level Miami Center
07:34AM 27.6478 -80.7197 336° Northwest 187 215 6,400  Level Miami Center
07:35AM 27.6931 -80.7428 336° Northwest 190 219 6,400  Level Miami Center
07:36AM 27.7433 -80.7658 338° Northwest 189 217 6,400  Level Miami Center
07:37AM 27.7922 -80.7906 336° Northwest 187 215 6,400  Level Miami Center
07:38AM 27.8386 -80.8119 338° Northwest 187 215 6,400  Level Miami Center
07:39AM 27.8883 -80.8367 336° Northwest 186 214 6,400  Level Miami Center
07:40AM 27.9372 -80.8611 336° Northwest 186 214 6,400  Level Miami Center
07:41AM 27.9858 -80.8861 336° Northwest 186 214 6,400  Level Miami Center
07:42AM 28.0297 -80.9100 334° Northwest 184 212 6,400 -240 Level Miami Center
07:43AM 28.0783 -80.9386 333° Northwest 186 214 6,000 -540 Descending Miami Center
07:44AM 28.1208 -80.9628 333° Northwest 194 223 5,400 -600 Descending Miami Center
07:45AM 28.1725 -80.9858 339° North 197 227 4,900 -540 Descending Miami Center
07:46AM 28.2225 -81.0111 336° Northwest 197 227 4,400 -540 Descending Miami Center
07:47AM 28.2733 -81.0353 337° Northwest 197 227 3,900 -540 Descending Miami Center
07:48AM 28.3333 -81.0644 337° Northwest 195 224 3,400 -300 Descending Miami Center
07:49AM 28.3806 -81.0861 338° Northwest 186 214 3,300 -120 Descending Miami Center
07:50AM 28.4242 -81.1081 336° Northwest 174 200 3,200 -300 Descending Miami Center
07:51AM 28.4719 -81.1319 336° Northwest 179 206 2,700 -600 Descending Miami Center
07:52AM 28.5197 -81.1533 339° North 186 214 2,000 -540 Descending Miami Center
07:53AM 28.5669 -81.1722 341° North 182 209 1,600 -420 Descending Miami Center
07:54AM 28.6017 -81.2036 322° Northwest 178 205 1,200 -300 Descending Miami Center
07:55AM 28.5733 -81.2564 239° Southwest 168 193 1,100 -360 Descending Miami Center
07:57AM 28.5583 -81.2964 247° West 141 162 500 -600 Descending Miami Center